Time;durP1;ratioP1;P1;durP2;ratioP2;P2;SDS_P1;SDS_P2;PMS_P1;PMS_P2;Temp;Humidity;BMP_temperature;BMP_pressure;BME280_temperature;BME280_humidity;BME280_pressure;Samples;Min_cycle;Max_cycle;Signal;HPM_P1;HPM_P2
2022/11/01 00:01:19;;;;;;;5.55;4.40;;;18.20;99.90;;;;;;5023039;28;20574;-68
2022/11/01 00:03:44;;;;;;;10.75;5.03;;;18.30;99.90;;;;;;5026530;28;20187;-67
2022/11/01 00:06:10;;;;;;;5.55;4.63;;;18.30;99.90;;;;;;5022756;28;20210;-66
2022/11/01 00:08:36;;;;;;;7.20;4.05;;;18.20;99.90;;;;;;5029902;28;20220;-67
2022/11/01 00:11:07;;;;;;;5.85;4.07;;;18.20;99.90;;;;;;5023984;28;20184;-66
2022/11/01 00:13:32;;;;;;;8.73;4.20;;;18.20;99.90;;;;;;5025250;28;20186;-67
2022/11/01 00:15:58;;;;;;;6.97;4.68;;;18.20;99.90;;;;;;5030312;28;20186;-67
2022/11/01 00:18:24;;;;;;;9.13;4.38;;;18.20;99.90;;;;;;5024617;28;20215;-67
2022/11/01 00:20:50;;;;;;;7.13;4.32;;;18.10;99.90;;;;;;5021666;28;20522;-68
2022/11/01 00:23:16;;;;;;;11.75;4.60;;;18.20;99.90;;;;;;5025402;28;20196;-67
2022/11/01 00:25:41;;;;;;;7.93;4.43;;;18.20;99.90;;;;;;5025188;28;20210;-67
2022/11/01 00:28:07;;;;;;;11.77;4.68;;;18.20;99.90;;;;;;5016597;28;20203;-67
2022/11/01 00:30:36;;;;;;;9.25;4.65;;;18.30;99.90;;;;;;5034144;28;20187;-67
2022/11/01 00:33:02;;;;;;;6.13;4.50;;;18.30;99.90;;;;;;5021042;28;20269;-67
2022/11/01 00:35:30;;;;;;;7.07;3.95;;;18.30;99.90;;;;;;5035149;28;20186;-67
2022/11/01 00:37:56;;;;;;;7.57;4.07;;;18.30;99.90;;;;;;5034475;28;20213;-68
2022/11/01 00:40:22;;;;;;;8.60;4.35;;;18.30;99.90;;;;;;5024876;28;20269;-69
2022/11/01 00:42:48;;;;;;;5.43;3.92;;;18.40;99.90;;;;;;5031339;28;20713;-67
2022/11/01 00:45:13;;;;;;;10.50;4.18;;;18.30;99.90;;;;;;5024947;28;20182;-69
2022/11/01 00:47:39;;;;;;;4.35;3.88;;;18.30;99.90;;;;;;5031544;28;20284;-68
2022/11/01 00:50:05;;;;;;;9.93;5.38;;;18.40;99.90;;;;;;5023011;28;20533;-68
2022/11/01 00:52:31;;;;;;;5.53;4.95;;;18.40;99.90;;;;;;5034538;28;20222;-68
2022/11/01 00:54:56;;;;;;;8.23;4.13;;;18.50;99.90;;;;;;5033214;28;20187;-68
2022/11/01 00:57:22;;;;;;;6.90;4.45;;;18.50;99.90;;;;;;5031254;28;20691;-68
2022/11/01 00:59:48;;;;;;;7.38;5.50;;;18.60;99.90;;;;;;5014558;28;20210;-68
2022/11/01 01:02:13;;;;;;;7.85;4.60;;;18.60;99.90;;;;;;5032369;28;20194;-68
2022/11/01 01:04:41;;;;;;;9.25;5.32;;;18.50;99.90;;;;;;5033008;28;20543;-68
2022/11/01 01:07:08;;;;;;;7.43;5.38;;;18.50;99.90;;;;;;5025361;28;20533;-68
2022/11/01 01:09:34;;;;;;;8.05;4.47;;;18.50;99.90;;;;;;5020682;28;20603;-67
2022/11/01 01:12:00;;;;;;;7.25;4.15;;;18.50;99.90;;;;;;5028994;28;20611;-68
2022/11/01 01:14:27;;;;;;;5.70;3.80;;;18.60;99.90;;;;;;5031343;28;20232;-68
2022/11/01 01:16:53;;;;;;;7.00;4.32;;;18.60;99.90;;;;;;5033195;28;20190;-69
2022/11/01 01:19:19;;;;;;;6.38;3.65;;;18.50;99.90;;;;;;5029607;28;20206;-68
2022/11/01 01:21:44;;;;;;;5.57;3.58;;;18.50;99.90;;;;;;5033323;28;20187;-67
2022/11/01 01:24:10;;;;;;;5.60;3.75;;;18.50;99.90;;;;;;5026118;28;20214;-67
2022/11/01 01:26:36;;;;;;;7.22;4.65;;;18.50;99.90;;;;;;5033531;28;20687;-67
2022/11/01 01:29:02;;;;;;;10.20;4.47;;;18.50;99.90;;;;;;5032819;28;20206;-66
2022/11/01 01:31:28;;;;;;;5.85;3.35;;;18.60;99.90;;;;;;5017736;28;20183;-66
2022/11/01 01:33:53;;;;;;;4.88;3.58;;;18.40;99.90;;;;;;5021988;28;20652;-67
2022/11/01 01:36:19;;;;;;;4.38;3.03;;;18.40;99.90;;;;;;5019724;28;20183;-67
2022/11/01 01:38:45;;;;;;;4.35;2.72;;;18.30;99.90;;;;;;5014140;28;20193;-68
2022/11/01 01:43:55;;;;;;;3.40;2.65;;;18.40;99.90;;;;;;5032561;28;20197;-68
2022/11/01 01:46:21;;;;;;;4.63;4.05;;;18.20;99.90;;;;;;5015978;28;20222;-67
2022/11/01 01:48:50;;;;;;;5.30;3.03;;;18.20;99.90;;;;;;5033495;28;20518;-68
2022/11/01 01:51:20;;;;;;;2.72;2.47;;;18.10;99.90;;;;;;5025145;28;20182;-68
2022/11/01 01:53:52;;;;;;;2.90;2.22;;;18.10;99.90;;;;;;5030601;28;20183;-68
2022/11/01 01:56:26;;;;;;;3.03;2.38;;;17.90;99.90;;;;;;5033569;28;20190;-67
2022/11/01 01:59:07;;;;;;;5.88;3.00;;;17.80;99.90;;;;;;5019539;28;20195;-67
2022/11/01 02:01:35;;;;;;;2.60;2.13;;;17.70;99.90;;;;;;5024311;28;20274;-67
2022/11/01 02:04:11;;;;;;;3.15;2.72;;;17.70;99.90;;;;;;5028202;28;20183;-66
2022/11/01 02:06:38;;;;;;;2.70;2.42;;;17.60;99.90;;;;;;5029622;28;20206;-67
2022/11/01 02:09:05;;;;;;;3.10;1.75;;;17.60;99.90;;;;;;5017773;28;20187;-68
2022/11/01 02:11:31;;;;;;;1.98;1.85;;;17.60;99.90;;;;;;5014171;28;20222;-68
2022/11/01 02:13:57;;;;;;;3.90;1.83;;;17.60;99.90;;;;;;5014707;28;20179;-67
2022/11/01 02:16:46;;;;;;;3.17;1.50;;;17.50;99.90;;;;;;5025587;28;20733;-68
2022/11/01 02:19:36;;;;;;;2.47;1.73;;;17.50;99.90;;;;;;5023078;28;20178;-69
2022/11/01 02:22:13;;;;;;;1.50;1.40;;;17.50;99.90;;;;;;5028596;28;20187;-68
2022/11/01 02:24:48;;;;;;;2.05;1.33;;;17.50;99.90;;;;;;5010622;28;20179;-68
2022/11/01 02:27:52;;;;;;;3.20;1.85;;;17.40;99.90;;;;;;5038942;28;20257;-68
2022/11/01 02:30:18;;;;;;;0.93;0.90;;;17.40;99.90;;;;;;4991801;28;20195;-67
2022/11/01 02:33:08;;;;;;;1.20;1.10;;;17.30;99.90;;;;;;5011880;28;20662;-68
2022/11/01 02:35:40;;;;;;;2.60;1.10;;;17.30;99.90;;;;;;5024172;28;20261;-67
2022/11/01 02:38:24;;;;;;;0.75;0.70;;;17.20;99.90;;;;;;5023006;28;20183;-67
2022/11/01 02:41:13;;;;;;;2.45;0.93;;;17.10;99.90;;;;;;5011676;28;20637;-67
2022/11/01 02:43:53;;;;;;;0.90;0.90;;;17.10;99.90;;;;;;5032543;28;20178;-68
2022/11/01 02:49:05;;;;;;;1.27;1.10;;;16.70;99.90;;;;;;5022669;28;20197;-67
2022/11/01 02:51:32;;;;;;;1.50;0.60;;;16.80;99.90;;;;;;5032446;28;20277;-68
2022/11/01 02:54:22;;;;;;;1.27;0.82;;;16.80;99.90;;;;;;5032392;28;20178;-68
2022/11/01 02:56:49;;;;;;;1.48;0.50;;;16.70;99.90;;;;;;5023905;28;20606;-67
2022/11/01 02:59:22;;;;;;;1.88;0.90;;;16.50;99.90;;;;;;5027358;28;20194;-67
2022/11/01 03:02:04;;;;;;;2.83;0.77;;;16.40;99.90;;;;;;5021543;28;20183;-67
2022/11/01 03:04:30;;;;;;;0.95;0.60;;;16.30;99.90;;;;;;5031897;28;20193;-68
2022/11/01 03:06:59;;;;;;;0.55;0.55;;;16.30;99.90;;;;;;5023740;28;20211;-68
2022/11/01 03:09:27;;;;;;;0.95;0.70;;;16.30;99.90;;;;;;5031966;28;20218;-68
2022/11/01 03:12:31;;;;;;;1.70;1.23;;;16.20;99.90;;;;;;5028145;28;20221;-69
2022/11/01 03:15:06;;;;;;;0.73;0.63;;;16.10;99.90;;;;;;4968849;28;20188;-66
2022/11/01 03:17:45;;;;;;;1.75;0.70;;;16.10;99.90;;;;;;5024724;28;20220;-67
2022/11/01 03:20:46;;;;;;;1.05;0.50;;;16.10;99.90;;;;;;5020467;28;20178;-67
2022/11/01 03:23:17;;;;;;;1.30;0.90;;;16.10;99.90;;;;;;5030744;28;20190;-68
2022/11/01 03:25:49;;;;;;;1.05;0.57;;;16.00;99.90;;;;;;5030940;28;20190;-67
2022/11/01 03:28:20;;;;;;;0.57;0.57;;;15.90;99.90;;;;;;5032012;28;20202;-66
2022/11/01 03:31:12;;;;;;;1.27;1.05;;;15.90;99.90;;;;;;5031824;28;20663;-67
2022/11/01 03:33:46;;;;;;;0.80;0.80;;;15.90;99.90;;;;;;5030582;28;20198;-67
2022/11/01 03:36:17;;;;;;;1.45;0.65;;;15.90;99.90;;;;;;5030874;28;20190;-68
2022/11/01 03:38:50;;;;;;;0.70;0.70;;;15.80;99.90;;;;;;5031892;28;20174;-67
2022/11/01 03:41:17;;;;;;;0.77;0.77;;;15.70;99.90;;;;;;5013618;28;20183;-67
2022/11/01 03:43:44;;;;;;;2.47;0.60;;;15.80;99.90;;;;;;5022141;28;20603;-67
2022/11/01 03:46:10;;;;;;;1.88;0.70;;;15.80;99.90;;;;;;5030583;28;20264;-68
2022/11/01 03:48:39;;;;;;;0.88;0.88;;;15.80;99.90;;;;;;5030864;28;20273;-68
2022/11/01 03:51:05;;;;;;;1.23;0.90;;;15.90;99.90;;;;;;5031613;28;20187;-67
2022/11/01 03:53:31;;;;;;;2.95;0.93;;;15.90;99.90;;;;;;5051336;28;20300;-67
2022/11/01 03:55:56;;;;;;;2.05;0.90;;;15.80;99.90;;;;;;5037749;28;20290;-67
2022/11/01 03:58:22;;;;;;;2.38;0.85;;;15.70;99.90;;;;;;5035974;28;20197;-68
2022/11/01 04:00:49;;;;;;;0.52;0.52;;;15.80;99.90;;;;;;5025485;28;20288;-67
2022/11/01 04:03:15;;;;;;;5.72;0.80;;;15.90;99.90;;;;;;5034773;28;20191;-68
2022/11/01 04:05:41;;;;;;;3.15;1.23;;;15.90;99.90;;;;;;5016017;28;20630;-67
2022/11/01 04:08:09;;;;;;;3.85;1.40;;;15.80;99.90;;;;;;5032779;28;20183;-68
2022/11/01 04:10:35;;;;;;;1.00;0.63;;;15.60;99.90;;;;;;5035189;28;20214;-67
2022/11/01 04:13:01;;;;;;;5.57;0.95;;;15.60;99.90;;;;;;5031204;28;20296;-67
2022/11/01 04:21:13;;;;;;;2.28;1.70;;;15.40;99.90;;;;;;5024229;28;20667;-67
2022/11/01 04:23:40;;;;;;;1.55;0.63;;;15.40;99.90;;;;;;5025779;28;20203;-67
2022/11/01 04:26:06;;;;;;;1.80;0.77;;;15.40;99.90;;;;;;5020926;28;20279;-68
2022/11/01 04:28:32;;;;;;;1.95;0.60;;;15.50;99.90;;;;;;5033519;28;20210;-67
2022/11/01 04:30:58;;;;;;;2.08;0.60;;;15.60;99.90;;;;;;5032526;28;20193;-67
2022/11/01 04:33:24;;;;;;;1.55;0.88;;;15.60;99.90;;;;;;5033098;28;20561;-67
2022/11/01 04:35:49;;;;;;;3.63;0.80;;;15.60;99.90;;;;;;5018935;28;20194;-68
2022/11/01 04:38:15;;;;;;;1.15;1.15;;;15.60;99.90;;;;;;5018688;28;20636;-67
2022/11/01 04:40:42;;;;;;;0.77;0.65;;;15.50;99.90;;;;;;5033750;28;20190;-67
2022/11/01 04:43:08;;;;;;;1.77;0.70;;;15.40;99.90;;;;;;5033329;28;20655;-67
2022/11/01 04:45:34;;;;;;;3.70;0.80;;;15.30;99.90;;;;;;5027043;28;20191;-67
2022/11/01 04:48:04;;;;;;;1.70;0.60;;;15.20;99.90;;;;;;5020455;28;20214;-68
2022/11/01 04:50:29;;;;;;;1.60;0.65;;;15.10;99.90;;;;;;5018563;28;20181;-67
2022/11/01 04:52:57;;;;;;;1.67;0.82;;;15.20;99.90;;;;;;5019922;28;20194;-67
2022/11/01 04:55:22;;;;;;;1.10;0.80;;;15.30;99.90;;;;;;5018343;28;20270;-68
2022/11/01 04:57:48;;;;;;;3.65;1.00;;;15.20;99.90;;;;;;5033397;28;20281;-68
2022/11/01 05:00:14;;;;;;;3.13;0.85;;;15.10;99.90;;;;;;5032634;28;20209;-69
2022/11/01 05:02:40;;;;;;;3.60;1.08;;;15.10;99.90;;;;;;5018358;28;20273;-69
2022/11/01 05:05:08;;;;;;;2.30;1.52;;;15.00;99.90;;;;;;5013823;28;20636;-68
2022/11/01 05:07:34;;;;;;;2.67;0.85;;;15.10;99.90;;;;;;5033210;28;20217;-68
2022/11/01 05:10:00;;;;;;;1.80;0.70;;;15.00;99.90;;;;;;5033230;28;20187;-68
2022/11/01 05:12:27;;;;;;;1.95;0.80;;;14.90;99.90;;;;;;5025857;28;20219;-69
2022/11/01 05:14:52;;;;;;;0.88;0.80;;;14.80;99.90;;;;;;5030533;28;20233;-68
2022/11/01 05:17:18;;;;;;;0.93;0.90;;;14.90;99.90;;;;;;5028093;28;20219;-68
2022/11/01 05:19:44;;;;;;;1.55;0.90;;;14.80;99.90;;;;;;5020001;28;20583;-67
2022/11/01 05:22:09;;;;;;;1.50;1.23;;;14.70;99.90;;;;;;5024846;28;20554;-68
2022/11/01 05:24:35;;;;;;;2.90;0.65;;;14.60;99.90;;;;;;5027090;28;20178;-68
2022/11/01 05:27:01;;;;;;;6.95;1.88;;;14.50;99.90;;;;;;5026990;28;20242;-67
2022/11/01 05:29:27;;;;;;;2.03;1.40;;;14.60;99.90;;;;;;5020777;28;20206;-67
2022/11/01 05:31:52;;;;;;;2.90;0.60;;;14.50;99.90;;;;;;5022488;28;21825;-68
2022/11/01 05:34:19;;;;;;;2.13;1.05;;;14.40;99.90;;;;;;5027186;28;20190;-67
2022/11/01 05:36:44;;;;;;;0.47;0.40;;;14.40;99.90;;;;;;5024953;28;20203;-69
2022/11/01 05:39:10;;;;;;;0.47;0.47;;;14.30;99.90;;;;;;5033984;28;20195;-68
2022/11/01 05:41:36;;;;;;;1.98;1.00;;;14.20;99.90;;;;;;5025950;28;20233;-67
2022/11/01 05:44:02;;;;;;;0.68;0.63;;;14.20;99.90;;;;;;5032143;28;20558;-67
2022/11/01 05:46:27;;;;;;;4.50;0.70;;;14.20;99.90;;;;;;5016895;28;20187;-66
2022/11/01 05:48:53;;;;;;;3.95;1.50;;;14.10;99.90;;;;;;5032207;28;20595;-67
2022/11/01 05:51:19;;;;;;;2.53;0.73;;;14.10;99.90;;;;;;5024846;28;20751;-67
2022/11/01 05:53:46;;;;;;;5.03;0.95;;;14.20;99.90;;;;;;5040452;28;20183;-67
2022/11/01 05:56:12;;;;;;;1.17;0.73;;;14.20;99.90;;;;;;5024565;28;20566;-67
2022/11/01 05:58:38;;;;;;;1.05;0.70;;;14.10;99.90;;;;;;5025346;28;20186;-67
2022/11/01 06:01:05;;;;;;;7.95;1.60;;;14.00;99.90;;;;;;5012973;28;20185;-68
2022/11/01 06:03:32;;;;;;;4.57;0.88;;;14.10;99.90;;;;;;5025723;28;20274;-67
2022/11/01 06:05:58;;;;;;;5.38;1.17;;;14.10;99.90;;;;;;5029458;28;20178;-68
2022/11/01 06:08:24;;;;;;;6.20;0.98;;;14.00;99.90;;;;;;5029049;28;20194;-67
2022/11/01 06:10:51;;;;;;;5.63;1.58;;;13.90;99.90;;;;;;5015433;28;20206;-67
2022/11/01 06:13:17;;;;;;;2.83;1.10;;;13.90;99.90;;;;;;5028507;28;20191;-67
2022/11/01 06:15:43;;;;;;;6.45;0.73;;;13.80;99.90;;;;;;5027743;28;20749;-67
2022/11/01 06:18:08;;;;;;;1.85;0.80;;;13.80;99.90;;;;;;5030688;28;20683;-67
2022/11/01 06:20:35;;;;;;;3.40;0.73;;;13.80;99.90;;;;;;5023684;28;20180;-67
2022/11/01 06:23:08;;;;;;;5.43;1.13;;;13.80;99.90;;;;;;5031060;28;20183;-67
2022/11/01 06:25:35;;;;;;;6.25;1.25;;;13.70;99.90;;;;;;5024093;28;20659;-67
2022/11/01 06:28:01;;;;;;;2.55;1.38;;;13.70;99.90;;;;;;5012466;28;20232;-67
2022/11/01 06:30:26;;;;;;;3.22;0.75;;;13.70;99.90;;;;;;5022250;28;20182;-67
2022/11/01 06:32:57;;;;;;;0.98;0.63;;;13.60;99.90;;;;;;5019617;28;20525;-67
2022/11/01 06:35:22;;;;;;;3.58;0.90;;;13.60;99.90;;;;;;5030895;28;20179;-67
2022/11/01 06:37:48;;;;;;;7.70;3.63;;;13.60;99.90;;;;;;5031573;28;20207;-68
2022/11/01 06:40:14;;;;;;;3.35;1.10;;;13.60;99.90;;;;;;5022404;28;20191;-67
2022/11/01 06:42:39;;;;;;;4.00;1.00;;;13.60;99.90;;;;;;5029416;28;20195;-66
2022/11/01 06:45:06;;;;;;;6.38;1.40;;;13.50;99.90;;;;;;5011132;28;20175;-67
2022/11/01 06:47:31;;;;;;;3.33;1.02;;;13.60;99.90;;;;;;5015010;28;20183;-67
2022/11/01 06:49:57;;;;;;;2.55;1.23;;;13.60;99.90;;;;;;5008656;28;20699;-67
2022/11/01 06:52:23;;;;;;;3.40;0.93;;;13.70;99.90;;;;;;5031726;28;20187;-67
2022/11/01 06:54:48;;;;;;;2.85;1.58;;;13.70;99.90;;;;;;5021098;28;20201;-67
2022/11/01 06:57:14;;;;;;;4.65;1.30;;;13.70;99.90;;;;;;5003432;28;20254;-67
2022/11/01 06:59:39;;;;;;;4.32;0.98;;;13.70;99.90;;;;;;5021606;28;20278;-67
2022/11/01 07:02:06;;;;;;;2.70;1.13;;;13.70;99.90;;;;;;5027284;28;20206;-68
2022/11/01 07:04:32;;;;;;;3.65;1.25;;;13.60;99.90;;;;;;5016585;28;20249;-67
2022/11/01 07:06:58;;;;;;;3.95;1.02;;;13.50;99.90;;;;;;5027219;28;20639;-69
2022/11/01 07:09:23;;;;;;;5.25;1.20;;;13.50;99.90;;;;;;5013978;28;20186;-69
2022/11/01 07:11:49;;;;;;;4.65;1.35;;;13.50;99.90;;;;;;5030337;28;20185;-69
2022/11/01 07:14:14;;;;;;;3.45;0.80;;;13.40;99.90;;;;;;5015652;28;20218;-72
2022/11/01 07:16:40;;;;;;;6.78;2.28;;;13.60;99.90;;;;;;5003055;28;20219;-69
2022/11/01 07:19:06;;;;;;;3.72;1.00;;;13.70;99.90;;;;;;5013419;28;20187;-67
2022/11/01 07:21:31;;;;;;;5.07;1.30;;;13.70;99.90;;;;;;5027498;28;20174;-68
2022/11/01 07:23:57;;;;;;;8.55;1.40;;;13.70;99.90;;;;;;5033358;28;20198;-71
2022/11/01 07:26:23;;;;;;;2.20;0.93;;;13.80;99.90;;;;;;5028982;28;20663;-68
2022/11/01 07:28:48;;;;;;;7.22;1.02;;;13.90;99.90;;;;;;5016917;28;20194;-70
2022/11/01 07:31:14;;;;;;;3.55;1.15;;;13.90;99.90;;;;;;5031077;28;20175;-70
2022/11/01 07:33:40;;;;;;;2.55;1.27;;;13.90;99.90;;;;;;5028080;28;20190;-70
2022/11/01 07:36:06;;;;;;;3.75;1.00;;;13.90;99.90;;;;;;4993492;28;20274;-69
2022/11/01 07:38:32;;;;;;;4.75;1.25;;;13.90;99.90;;;;;;5032300;28;20659;-69
2022/11/01 07:40:57;;;;;;;3.17;0.95;;;13.80;99.90;;;;;;5023457;28;20290;-70
2022/11/01 07:43:23;;;;;;;4.97;2.05;;;13.80;99.90;;;;;;5028355;28;20170;-69
2022/11/01 07:45:49;;;;;;;5.47;1.38;;;13.80;99.90;;;;;;5030353;28;20282;-70
2022/11/01 07:48:17;;;;;;;5.70;1.20;;;13.90;99.90;;;;;;5018785;28;20190;-68
2022/11/01 07:50:43;;;;;;;9.50;1.60;;;14.00;99.90;;;;;;5029249;28;20183;-68
2022/11/01 07:53:11;;;;;;;4.50;2.00;;;14.10;99.90;;;;;;5036571;28;20551;-69
2022/11/01 07:55:37;;;;;;;5.28;1.50;;;14.10;99.90;;;;;;5025962;28;20201;-68
2022/11/01 07:58:04;;;;;;;5.20;1.35;;;14.10;99.90;;;;;;5028429;28;20214;-68
2022/11/01 08:00:30;;;;;;;2.65;1.30;;;14.10;99.90;;;;;;5032924;28;20698;-69
2022/11/01 08:03:04;;;;;;;6.05;1.52;;;14.00;99.90;;;;;;5022780;28;20640;-68
2022/11/01 08:05:30;;;;;;;6.70;1.25;;;13.90;99.90;;;;;;5025524;28;20181;-69
2022/11/01 08:07:56;;;;;;;7.18;1.38;;;13.90;99.90;;;;;;5020721;28;20191;-69
2022/11/01 08:10:22;;;;;;;9.10;2.20;;;13.90;99.90;;;;;;5024169;28;20188;-69
2022/11/01 08:12:48;;;;;;;5.32;1.15;;;13.90;99.90;;;;;;5028833;28;20191;-68
2022/11/01 08:15:14;;;;;;;8.07;1.80;;;13.80;99.90;;;;;;5028497;28;20703;-69
2022/11/01 08:17:40;;;;;;;1.30;1.20;;;13.90;99.90;;;;;;5043782;28;20269;-68
2022/11/01 08:20:06;;;;;;;2.85;1.10;;;14.00;99.90;;;;;;4990505;28;20285;-69
2022/11/01 08:22:32;;;;;;;6.50;1.30;;;14.00;99.90;;;;;;5033230;28;20214;-69
2022/11/01 08:24:58;;;;;;;4.15;1.42;;;14.00;99.90;;;;;;5033423;28;20178;-69
2022/11/01 08:27:24;;;;;;;4.88;1.33;;;14.00;99.90;;;;;;5013867;28;20202;-68
2022/11/01 08:29:50;;;;;;;5.45;1.27;;;14.00;99.90;;;;;;5039195;28;20186;-70
2022/11/01 08:32:20;;;;;;;6.65;0.93;;;13.90;99.90;;;;;;5027207;28;20670;-73
2022/11/01 08:34:46;;;;;;;6.28;1.48;;;13.90;99.90;;;;;;5027311;28;20183;-69
2022/11/01 08:37:12;;;;;;;1.67;1.13;;;14.00;99.90;;;;;;5025121;28;20211;-70
2022/11/01 08:39:37;;;;;;;6.53;1.50;;;14.10;99.90;;;;;;5029277;28;20189;-71
2022/11/01 08:42:04;;;;;;;3.40;1.10;;;14.10;99.90;;;;;;4991791;28;20175;-70
2022/11/01 08:44:33;;;;;;;5.65;2.42;;;14.10;99.90;;;;;;5024880;28;20256;-71
2022/11/01 08:47:00;;;;;;;1.45;0.93;;;14.20;99.90;;;;;;5029805;28;20182;-72
2022/11/01 08:49:27;;;;;;;7.40;1.33;;;14.30;99.90;;;;;;5026069;28;20536;-70
2022/11/01 08:51:53;;;;;;;4.70;1.00;;;14.30;99.90;;;;;;5016749;28;20198;-68
2022/11/01 08:54:19;;;;;;;12.75;2.30;;;14.30;99.90;;;;;;5033378;28;20210;-70
2022/11/01 08:56:45;;;;;;;2.10;1.20;;;14.30;99.90;;;;;;5025548;28;20246;-70
2022/11/01 08:59:10;;;;;;;4.50;1.65;;;14.40;99.90;;;;;;5029068;28;20285;-68
2022/11/01 09:01:37;;;;;;;2.58;1.48;;;14.40;99.90;;;;;;5034281;28;20645;-70
2022/11/01 09:04:04;;;;;;;2.78;1.27;;;14.40;99.90;;;;;;5024529;28;20258;-69
2022/11/01 09:06:29;;;;;;;3.72;2.38;;;14.30;99.90;;;;;;5027602;28;20190;-70
2022/11/01 09:08:55;;;;;;;3.40;2.22;;;14.50;99.90;;;;;;5040005;28;20176;-69
2022/11/01 09:11:23;;;;;;;4.88;0.77;;;14.60;99.90;;;;;;5031419;28;20195;-70
2022/11/01 09:13:49;;;;;;;3.28;1.20;;;14.50;99.90;;;;;;5020994;28;20186;-74
2022/11/01 09:16:15;;;;;;;1.88;0.90;;;14.60;99.90;;;;;;5024133;28;20223;-72
2022/11/01 09:18:42;;;;;;;9.65;2.10;;;14.60;99.90;;;;;;5023961;28;20539;-74
2022/11/01 09:21:08;;;;;;;7.07;1.23;;;14.50;99.90;;;;;;5025910;28;20189;-70
2022/11/01 09:23:35;;;;;;;1.70;1.35;;;14.50;99.90;;;;;;5031908;28;20186;-69
2022/11/01 09:26:05;;;;;;;5.05;1.92;;;14.50;99.90;;;;;;5026790;28;20645;-72
2022/11/01 09:28:32;;;;;;;1.92;1.17;;;14.50;99.90;;;;;;5031570;28;20194;-75
2022/11/01 09:31:09;;;;;;;6.80;1.25;;;14.50;99.90;;;;;;5031588;28;20221;-73
2022/11/01 09:33:35;;;;;;;4.25;1.95;;;14.70;99.90;;;;;;5027880;28;20189;-71
2022/11/01 09:36:01;;;;;;;7.10;1.83;;;14.90;99.90;;;;;;5026980;28;20212;-70
2022/11/01 09:38:27;;;;;;;3.75;1.73;;;15.00;99.90;;;;;;5027780;28;20318;-70
2022/11/01 09:41:06;;;;;;;4.80;1.35;;;15.10;99.90;;;;;;5016255;28;20186;-68
2022/11/01 09:43:35;;;;;;;9.88;1.33;;;15.20;99.90;;;;;;5027547;28;20593;-69
2022/11/01 09:46:03;;;;;;;6.25;2.95;;;15.30;99.90;;;;;;5031133;28;20183;-70
2022/11/01 09:48:31;;;;;;;11.68;1.75;;;15.30;99.90;;;;;;5026792;28;20190;-73
2022/11/01 09:51:01;;;;;;;1.52;1.02;;;15.30;99.90;;;;;;5015337;28;20213;-74
2022/11/01 09:53:28;;;;;;;2.80;1.20;;;15.30;99.90;;;;;;5026280;28;20225;-75
2022/11/01 09:56:15;;;;;;;2.70;1.15;;;15.40;99.90;;;;;;5022795;28;20178;-71
2022/11/01 09:59:07;;;;;;;5.15;1.25;;;15.40;99.90;;;;;;5014344;28;20195;-71
2022/11/01 10:01:55;;;;;;;9.85;2.97;;;15.40;99.90;;;;;;5011574;28;20191;-71
2022/11/01 10:04:49;;;;;;;6.70;1.92;;;15.40;99.90;;;;;;5026850;28;20182;-66
2022/11/01 10:07:33;;;;;;;7.43;1.58;;;15.40;99.90;;;;;;5025808;28;20170;-68
2022/11/01 10:10:28;;;;;;;1.70;0.57;;;15.40;99.90;;;;;;5031565;28;20175;-68
2022/11/01 10:13:06;;;;;;;6.75;2.15;;;15.50;99.90;;;;;;5028877;28;20221;-69
2022/11/01 10:16:07;;;;;;;3.42;0.85;;;15.50;99.90;;;;;;5033014;28;20533;-69
2022/11/01 10:18:46;;;;;;;4.22;1.35;;;15.50;99.90;;;;;;4965951;28;20206;-69
2022/11/01 10:21:15;;;;;;;2.65;0.93;;;15.60;99.90;;;;;;5035080;28;20214;-68
2022/11/01 10:23:51;;;;;;;6.28;1.17;;;15.70;99.90;;;;;;5028441;28;20606;-69
2022/11/01 10:26:29;;;;;;;2.42;1.95;;;15.80;99.90;;;;;;5029292;28;20189;-70
2022/11/01 10:29:06;;;;;;;4.78;1.00;;;15.90;99.90;;;;;;5048236;28;20673;-69
2022/11/01 10:31:38;;;;;;;3.58;1.67;;;15.80;99.90;;;;;;5029885;28;20660;-71
2022/11/01 10:34:31;;;;;;;4.88;1.15;;;15.80;99.90;;;;;;5025751;28;20198;-71
2022/11/01 10:37:21;;;;;;;2.83;0.93;;;15.90;99.90;;;;;;5024524;28;20539;-69
2022/11/01 10:39:55;;;;;;;1.75;1.00;;;16.10;99.90;;;;;;4991226;28;20187;-66
2022/11/01 10:42:21;;;;;;;4.10;0.95;;;16.10;99.90;;;;;;5028534;28;20742;-69
2022/11/01 10:44:56;;;;;;;5.72;1.95;;;16.10;99.90;;;;;;5028852;28;20201;-70
2022/11/01 10:47:23;;;;;;;5.43;2.58;;;16.10;99.90;;;;;;5020684;28;20222;-70
2022/11/01 10:50:00;;;;;;;4.47;1.10;;;16.10;99.90;;;;;;5022697;28;20179;-69
2022/11/01 10:52:31;;;;;;;8.88;1.50;;;16.00;99.90;;;;;;5012463;28;20594;-70
2022/11/01 10:54:58;;;;;;;1.20;0.93;;;16.30;99.90;;;;;;5020909;28;20175;-69
2022/11/01 10:57:36;;;;;;;3.35;1.40;;;16.30;99.90;;;;;;5030845;28;20236;-70
2022/11/01 11:00:05;;;;;;;5.15;1.10;;;16.40;99.90;;;;;;5025798;28;20611;-70
2022/11/01 11:02:39;;;;;;;4.97;1.48;;;16.30;99.90;;;;;;5021319;28;20172;-70
2022/11/01 11:05:05;;;;;;;5.70;2.15;;;16.50;99.90;;;;;;5028233;28;20183;-71
2022/11/01 11:07:32;;;;;;;3.05;0.90;;;16.50;99.90;;;;;;5008960;28;20532;-70
2022/11/01 11:10:00;;;;;;;9.05;1.92;;;16.40;99.90;;;;;;5026343;28;20179;-71
2022/11/01 11:12:28;;;;;;;5.85;0.90;;;16.40;99.90;;;;;;5017416;28;20205;-71
2022/11/01 11:15:03;;;;;;;7.15;1.05;;;16.40;99.90;;;;;;5017379;28;20535;-71
2022/11/01 11:17:36;;;;;;;7.22;1.63;;;16.50;99.90;;;;;;5026113;28;20263;-71
2022/11/01 11:20:06;;;;;;;3.95;2.20;;;16.60;99.90;;;;;;5030081;28;20183;-71
2022/11/01 11:22:36;;;;;;;4.15;1.45;;;16.60;99.90;;;;;;5029704;28;20190;-70
2022/11/01 11:25:03;;;;;;;1.92;1.63;;;16.70;99.90;;;;;;5032595;28;20178;-67
2022/11/01 11:27:31;;;;;;;2.25;1.52;;;16.80;99.90;;;;;;5029979;28;20201;-70
2022/11/01 11:30:07;;;;;;;3.85;1.08;;;16.80;99.90;;;;;;5030188;28;20233;-69
2022/11/01 11:32:37;;;;;;;6.03;1.05;;;16.90;99.90;;;;;;5014954;28;20550;-67
2022/11/01 11:35:03;;;;;;;2.33;0.90;;;16.90;99.90;;;;;;5028900;28;20170;-67
2022/11/01 11:37:32;;;;;;;5.40;0.88;;;16.80;99.90;;;;;;5032067;28;20577;-69
2022/11/01 11:40:17;;;;;;;2.17;1.23;;;16.90;99.90;;;;;;5029975;28;20181;-69
2022/11/01 11:42:44;;;;;;;5.95;2.10;;;17.00;99.90;;;;;;5030563;28;20548;-69
2022/11/01 11:45:22;;;;;;;5.13;1.08;;;17.10;99.90;;;;;;5028861;28;20182;-69
2022/11/01 11:47:48;;;;;;;3.88;0.93;;;17.00;99.90;;;;;;5025850;28;20669;-69
2022/11/01 11:50:20;;;;;;;1.70;1.00;;;17.00;99.90;;;;;;5013200;28;20180;-69
2022/11/01 11:53:16;;;;;;;6.93;1.92;;;17.00;99.90;;;;;;5023223;28;20644;-68
2022/11/01 11:55:44;;;;;;;3.13;2.08;;;16.90;99.90;;;;;;5028005;28;20226;-69
2022/11/01 11:58:28;;;;;;;5.85;1.33;;;16.80;99.90;;;;;;5026179;28;20258;-68
2022/11/01 12:01:06;;;;;;;4.95;1.10;;;17.00;99.90;;;;;;5022841;28;20197;-68
2022/11/01 12:03:54;;;;;;;6.90;2.22;;;17.10;99.90;;;;;;5023199;28;20185;-68
2022/11/01 12:06:25;;;;;;;1.95;1.00;;;17.10;99.90;;;;;;5045962;28;20233;-69
2022/11/01 12:08:56;;;;;;;4.88;1.27;;;17.00;99.90;;;;;;5027611;28;20632;-68
2022/11/01 12:11:24;;;;;;;8.20;1.10;;;17.10;99.90;;;;;;5029339;28;20197;-67
2022/11/01 12:14:05;;;;;;;2.88;0.80;;;17.20;99.90;;;;;;5015191;28;20186;-68
2022/11/01 12:16:40;;;;;;;8.10;1.15;;;17.30;99.90;;;;;;5034147;28;20261;-68
2022/11/01 12:19:30;;;;;;;3.15;1.10;;;17.20;99.90;;;;;;5021165;28;20184;-69
2022/11/01 12:22:00;;;;;;;3.10;1.00;;;17.10;99.90;;;;;;5021224;28;20191;-69
2022/11/01 12:24:32;;;;;;;5.35;1.50;;;17.10;99.90;;;;;;5033386;28;20694;-69
2022/11/01 12:27:03;;;;;;;2.88;1.73;;;17.20;99.90;;;;;;5027124;28;20575;-68
2022/11/01 12:29:41;;;;;;;4.72;1.80;;;17.30;99.90;;;;;;5019303;28;20198;-69
2022/11/01 12:32:33;;;;;;;6.72;1.25;;;17.30;99.90;;;;;;5023653;28;20186;-67
2022/11/01 12:35:03;;;;;;;5.28;1.88;;;17.30;99.90;;;;;;5023805;28;20218;-68
2022/11/01 12:37:58;;;;;;;2.10;1.42;;;17.20;99.90;;;;;;5024271;28;20548;-69
2022/11/01 12:40:37;;;;;;;3.08;1.10;;;17.10;99.90;;;;;;5016839;28;20647;-69
2022/11/01 12:43:18;;;;;;;4.15;1.00;;;17.30;99.90;;;;;;5018879;28;20179;-71
2022/11/01 12:46:12;;;;;;;4.72;1.80;;;17.40;99.90;;;;;;5028127;28;20547;-68
2022/11/01 12:49:01;;;;;;;2.15;0.77;;;17.40;99.90;;;;;;5017054;28;20184;-69
2022/11/01 12:51:37;;;;;;;5.43;1.35;;;17.40;99.90;;;;;;5019928;28;20191;-70
2022/11/01 12:54:10;;;;;;;4.25;1.33;;;17.30;99.90;;;;;;5031999;28;20182;-68
2022/11/01 12:56:36;;;;;;;3.40;1.73;;;17.20;99.90;;;;;;5034676;28;20206;-68
2022/11/01 12:59:03;;;;;;;1.45;0.75;;;17.30;99.90;;;;;;5024199;28;20241;-69
2022/11/01 13:01:32;;;;;;;3.63;1.60;;;17.40;99.90;;;;;;5031683;28;20653;-66
2022/11/01 13:04:06;;;;;;;2.65;1.35;;;17.30;99.90;;;;;;5027912;28;20187;-67
2022/11/01 13:06:57;;;;;;;3.80;1.45;;;17.20;99.90;;;;;;5038229;28;20190;-67
2022/11/01 13:09:31;;;;;;;3.88;1.48;;;17.20;99.90;;;;;;5022959;28;20182;-69
2022/11/01 13:12:15;;;;;;;1.08;0.93;;;17.20;99.90;;;;;;5029075;28;20228;-69